Terminal Aerodrome Forecast
Issued by NWS

Home | Current Version | Previous Version | Text Only | Print | Product List | Glossary Off
Versions: 1 2 3 4 5 6 7 8 9 10 11 12 13 14 15 16 17 18

000
FTUS43 KMPX 250500
TAFRWF
TAF
KRWF 250527Z 2506/2606 13008KT P6SM SCT040 BKN080
      TEMPO 2507/2510 5SM -TSRA BR OVC035CB
     FM251000 16009KT P6SM SCT020 BKN035
     FM251800 27005KT P6SM BKN040
     FM260100 30005KT P6SM SKC=

USA.gov is the U.S. government's official web portal to all federal, state and local government web resources and services.